Time;durP1;ratioP1;P1;durP2;ratioP2;P2;SDS_P1;SDS_P2;PMS_P1;PMS_P2;Temp;Humidity;BMP_temperature;BMP_pressure;BME280_temperature;BME280_humidity;BME280_pressure;Samples;Min_cycle;Max_cycle;Signal;HPM_P1;HPM_P2
2021/09/03 00:02:24;;;;;;;10.15;9.15;;;12.00;99.20;;;;;;5079790;28;20289;-83
2021/09/03 00:04:51;;;;;;;11.70;9.77;;;12.00;99.20;;;;;;5080723;28;20249;-84
2021/09/03 00:07:18;;;;;;;10.93;9.48;;;12.00;99.20;;;;;;5074834;28;20222;-83
2021/09/03 00:09:45;;;;;;;13.48;10.02;;;12.10;99.20;;;;;;5080604;28;20403;-84
2021/09/03 00:12:12;;;;;;;13.50;10.80;;;12.10;99.10;;;;;;5084947;28;20213;-84
2021/09/03 00:14:40;;;;;;;11.70;9.93;;;12.00;99.10;;;;;;5083978;28;20303;-83
2021/09/03 00:17:07;;;;;;;11.35;9.60;;;12.00;99.10;;;;;;5084930;28;20273;-84
2021/09/03 00:19:34;;;;;;;12.63;10.07;;;11.90;99.30;;;;;;5084399;28;20288;-85
2021/09/03 00:22:03;;;;;;;10.90;9.60;;;11.90;99.50;;;;;;5083217;28;20232;-83
2021/09/03 00:24:30;;;;;;;12.65;10.55;;;12.00;99.30;;;;;;5078799;28;20233;-83
2021/09/03 00:26:57;;;;;;;13.50;9.95;;;12.00;99.10;;;;;;5078180;28;20268;-83
2021/09/03 00:29:24;;;;;;;13.10;9.90;;;12.00;99.30;;;;;;5080086;28;20288;-83
2021/09/03 00:31:52;;;;;;;12.70;9.73;;;11.90;99.40;;;;;;5083265;28;20289;-84
2021/09/03 00:34:19;;;;;;;11.90;10.13;;;11.80;99.50;;;;;;5086096;28;20241;-84
2021/09/03 00:36:47;;;;;;;12.73;10.25;;;11.80;99.50;;;;;;5085776;28;20224;-84
2021/09/03 00:39:14;;;;;;;13.48;10.85;;;11.80;99.60;;;;;;5084137;28;20221;-83
2021/09/03 00:41:41;;;;;;;15.73;10.55;;;11.80;99.70;;;;;;5082992;28;20288;-84
2021/09/03 00:44:08;;;;;;;14.95;10.60;;;11.80;99.90;;;;;;5083090;28;20253;-83
2021/09/03 00:46:35;;;;;;;12.55;10.63;;;11.70;99.90;;;;;;5085257;28;20228;-83
2021/09/03 00:49:04;;;;;;;12.38;10.95;;;11.70;99.90;;;;;;5080703;28;20307;-84
2021/09/03 00:51:31;;;;;;;13.57;10.85;;;11.70;99.90;;;;;;5090434;28;20291;-83
2021/09/03 00:53:58;;;;;;;12.98;11.07;;;11.70;99.90;;;;;;5087123;28;20280;-83
2021/09/03 00:56:25;;;;;;;12.38;10.57;;;11.70;99.90;;;;;;5085665;28;20236;-83
2021/09/03 00:58:51;;;;;;;14.50;11.80;;;11.70;99.80;;;;;;5083945;28;20229;-84
2021/09/03 01:01:20;;;;;;;13.55;10.90;;;11.70;99.80;;;;;;5082381;28;20233;-83
2021/09/03 01:03:47;;;;;;;13.82;10.75;;;11.70;99.80;;;;;;5077595;28;20422;-84
2021/09/03 01:06:16;;;;;;;12.50;10.27;;;11.80;99.90;;;;;;5077579;28;20209;-83
2021/09/03 01:08:47;;;;;;;12.43;10.60;;;11.80;99.80;;;;;;5086393;28;20206;-83
2021/09/03 01:11:14;;;;;;;12.73;11.07;;;11.80;99.50;;;;;;5084661;28;20258;-84
2021/09/03 01:13:41;;;;;;;13.65;10.77;;;11.60;99.60;;;;;;5092139;28;20290;-84
2021/09/03 01:16:08;;;;;;;13.27;11.02;;;11.70;99.90;;;;;;5084331;28;20229;-83
2021/09/03 01:18:35;;;;;;;15.20;10.90;;;11.60;99.90;;;;;;5088245;28;20236;-84
2021/09/03 01:21:01;;;;;;;14.57;11.13;;;11.60;99.90;;;;;;5082345;28;20304;-83
2021/09/03 01:23:30;;;;;;;13.95;11.25;;;11.70;99.90;;;;;;5087590;28;20296;-84
2021/09/03 01:26:01;;;;;;;13.45;10.98;;;11.70;99.80;;;;;;5089393;28;20435;-83
2021/09/03 01:28:28;;;;;;;13.98;11.52;;;11.60;99.80;;;;;;5084034;28;20231;-83
2021/09/03 01:30:55;;;;;;;12.68;10.52;;;11.60;99.90;;;;;;5080613;28;20236;-84
2021/09/03 01:33:22;;;;;;;14.43;10.73;;;11.50;99.90;;;;;;5087711;28;20289;-83
2021/09/03 01:35:49;;;;;;;14.82;11.63;;;11.40;99.90;;;;;;5089136;28;20751;-83
2021/09/03 01:38:16;;;;;;;12.68;10.63;;;11.40;99.90;;;;;;5083210;28;20203;-83
2021/09/03 01:40:44;;;;;;;14.23;10.75;;;11.40;99.90;;;;;;5084607;28;20682;-84
2021/09/03 01:43:11;;;;;;;12.32;10.77;;;11.50;99.90;;;;;;5088343;28;20199;-84
2021/09/03 01:45:39;;;;;;;12.40;10.73;;;11.60;99.90;;;;;;5084311;28;20305;-83
2021/09/03 01:48:06;;;;;;;12.48;10.77;;;11.60;99.90;;;;;;5088074;28;20204;-83
2021/09/03 01:50:34;;;;;;;13.40;11.50;;;11.50;99.90;;;;;;5085471;28;20225;-83
2021/09/03 01:53:01;;;;;;;12.68;10.63;;;11.50;99.90;;;;;;5084922;28;20261;-83
2021/09/03 01:55:28;;;;;;;12.57;10.90;;;11.60;99.90;;;;;;5086473;28;20236;-83
2021/09/03 01:57:58;;;;;;;14.65;10.80;;;11.70;99.90;;;;;;5086659;28;20209;-83
2021/09/03 02:00:25;;;;;;;12.68;10.75;;;11.70;99.90;;;;;;5091826;28;20227;-83
2021/09/03 02:02:53;;;;;;;12.60;10.73;;;11.70;99.70;;;;;;5083053;28;20221;-84
2021/09/03 02:05:21;;;;;;;13.73;10.50;;;11.70;99.70;;;;;;5083015;28;20228;-83
2021/09/03 02:07:48;;;;;;;11.00;9.82;;;11.70;99.40;;;;;;5086529;28;20201;-83
2021/09/03 02:10:15;;;;;;;12.55;9.95;;;11.70;99.20;;;;;;5086102;28;20248;-83
2021/09/03 02:12:42;;;;;;;11.50;9.93;;;11.60;99.00;;;;;;5088758;28;20229;-83
2021/09/03 02:15:11;;;;;;;12.30;10.23;;;11.50;99.00;;;;;;5084907;28;20289;-84
2021/09/03 02:17:38;;;;;;;13.75;10.40;;;11.40;99.30;;;;;;5087366;28;20232;-83
2021/09/03 02:20:07;;;;;;;13.63;10.13;;;11.30;99.20;;;;;;5084293;28;20285;-83
2021/09/03 02:22:34;;;;;;;14.20;9.82;;;11.30;99.20;;;;;;5085481;28;20253;-84
2021/09/03 02:25:00;;;;;;;12.30;10.10;;;11.30;99.10;;;;;;5078132;28;20249;-83
2021/09/03 02:27:27;;;;;;;12.13;9.27;;;11.20;99.20;;;;;;5085916;28;20224;-83
2021/09/03 02:29:55;;;;;;;10.90;8.77;;;11.20;99.10;;;;;;5089177;28;20229;-83
2021/09/03 02:32:23;;;;;;;10.90;9.50;;;11.30;99.30;;;;;;5084020;28;20198;-83
2021/09/03 02:34:50;;;;;;;10.82;9.43;;;11.20;99.10;;;;;;5078134;28;20218;-83
2021/09/03 02:37:20;;;;;;;10.13;9.00;;;11.00;99.20;;;;;;5085475;28;20236;-83
2021/09/03 02:39:47;;;;;;;9.48;8.48;;;10.90;99.40;;;;;;5085955;28;20261;-83
2021/09/03 02:42:14;;;;;;;10.48;8.85;;;10.80;99.50;;;;;;5087501;28;20231;-83
2021/09/03 02:44:41;;;;;;;10.85;8.93;;;10.70;99.40;;;;;;5084386;28;20256;-86
2021/09/03 02:47:08;;;;;;;11.43;9.43;;;10.70;99.50;;;;;;5086136;28;20229;-83
2021/09/03 02:49:39;;;;;;;10.15;9.07;;;10.70;99.90;;;;;;5087769;28;20251;-83
2021/09/03 02:52:08;;;;;;;11.77;9.65;;;10.70;99.80;;;;;;5087388;28;20194;-83
2021/09/03 02:54:35;;;;;;;10.80;8.07;;;10.70;99.80;;;;;;5083544;28;20296;-83
2021/09/03 02:57:03;;;;;;;10.00;8.80;;;10.80;99.70;;;;;;5080744;28;20229;-83
2021/09/03 02:59:30;;;;;;;10.63;8.82;;;10.90;99.50;;;;;;5091298;28;20250;-83
2021/09/03 03:01:57;;;;;;;9.90;8.40;;;11.00;99.50;;;;;;5086917;28;20227;-84
2021/09/03 03:04:24;;;;;;;12.68;9.20;;;11.00;99.30;;;;;;5083067;28;20260;-83
2021/09/03 03:06:53;;;;;;;9.88;8.57;;;11.00;99.30;;;;;;5080437;28;20278;-83
2021/09/03 03:09:20;;;;;;;10.45;8.95;;;11.00;99.20;;;;;;5084810;28;20234;-83
2021/09/03 03:11:47;;;;;;;10.63;8.75;;;11.00;99.30;;;;;;5080579;28;20261;-84
2021/09/03 03:14:26;;;;;;;11.20;9.18;;;10.90;99.30;;;;;;5087182;28;20311;-83
2021/09/03 03:16:53;;;;;;;10.45;8.98;;;10.80;99.30;;;;;;5088030;28;20200;-84
2021/09/03 03:19:20;;;;;;;10.40;8.55;;;10.70;99.40;;;;;;5085338;28;20233;-83
2021/09/03 03:21:47;;;;;;;10.00;8.32;;;10.60;99.50;;;;;;5081358;28;20197;-83
2021/09/03 03:24:15;;;;;;;10.32;8.32;;;10.60;99.60;;;;;;5081854;28;20656;-83
2021/09/03 03:26:43;;;;;;;10.93;8.88;;;10.70;99.50;;;;;;5087483;28;20240;-83
2021/09/03 03:29:10;;;;;;;12.23;8.50;;;10.60;99.40;;;;;;5084452;28;20692;-83
2021/09/03 03:31:37;;;;;;;9.23;8.23;;;10.60;99.30;;;;;;5081380;28;20256;-83
2021/09/03 03:34:06;;;;;;;9.65;8.30;;;10.60;99.50;;;;;;5086998;28;20226;-83
2021/09/03 03:36:33;;;;;;;9.75;8.23;;;10.60;99.60;;;;;;5085658;28;20194;-83
2021/09/03 03:39:00;;;;;;;11.00;9.02;;;10.50;99.30;;;;;;5084163;28;23617;-83
2021/09/03 03:41:29;;;;;;;10.45;8.18;;;10.50;99.40;;;;;;5086628;28;20215;-84
2021/09/03 03:43:56;;;;;;;10.55;8.73;;;10.60;99.40;;;;;;5081485;28;20528;-83
2021/09/03 03:46:23;;;;;;;10.35;8.02;;;10.70;99.30;;;;;;5087749;28;20262;-83
2021/09/03 03:48:50;;;;;;;9.68;8.50;;;10.70;99.30;;;;;;5083264;28;20241;-83
2021/09/03 03:51:17;;;;;;;9.57;8.57;;;10.70;99.20;;;;;;5083960;28;20209;-84
2021/09/03 03:53:44;;;;;;;10.93;8.18;;;10.70;99.10;;;;;;5084519;28;20752;-83
2021/09/03 03:56:11;;;;;;;11.43;8.48;;;10.70;99.00;;;;;;5090759;28;20290;-83
2021/09/03 03:58:40;;;;;;;10.77;8.27;;;10.70;99.00;;;;;;5076116;28;20201;-83
2021/09/03 04:01:07;;;;;;;11.15;8.35;;;10.60;98.90;;;;;;5080304;28;20217;-83
2021/09/03 04:03:34;;;;;;;11.32;7.88;;;10.60;98.90;;;;;;5082904;28;20632;-83
2021/09/03 04:06:01;;;;;;;11.10;8.20;;;10.60;98.90;;;;;;5085626;28;20674;-83
2021/09/03 04:08:28;;;;;;;11.30;7.53;;;10.50;98.80;;;;;;5084456;28;20219;-83
2021/09/03 04:10:55;;;;;;;11.20;8.23;;;10.50;98.90;;;;;;5088016;28;20822;-84
2021/09/03 04:13:22;;;;;;;11.55;7.93;;;10.50;98.90;;;;;;5078056;28;20272;-84
2021/09/03 04:15:52;;;;;;;10.35;7.70;;;10.40;99.00;;;;;;5078889;28;20255;-83
2021/09/03 04:18:19;;;;;;;8.25;7.18;;;10.30;99.00;;;;;;5086125;28;20217;-83
2021/09/03 04:20:46;;;;;;;9.60;7.80;;;10.20;98.90;;;;;;5081169;28;20225;-83
2021/09/03 04:23:13;;;;;;;8.90;7.25;;;10.20;98.80;;;;;;5081137;28;20253;-84
2021/09/03 04:25:40;;;;;;;10.13;7.57;;;10.10;98.90;;;;;;5087679;28;20229;-84
2021/09/03 04:28:07;;;;;;;9.25;7.63;;;10.10;99.10;;;;;;5076489;28;20270;-83
2021/09/03 04:30:35;;;;;;;10.05;7.20;;;10.10;99.00;;;;;;5084327;28;20227;-83
2021/09/03 04:33:03;;;;;;;10.30;7.15;;;10.10;98.90;;;;;;5081995;28;20288;-83
2021/09/03 04:35:30;;;;;;;8.05;6.97;;;10.10;98.80;;;;;;5066789;28;20229;-83
2021/09/03 04:37:57;;;;;;;9.75;7.30;;;10.10;98.50;;;;;;5079330;28;20221;-83
2021/09/03 04:40:24;;;;;;;11.15;7.47;;;10.10;98.50;;;;;;5080126;28;20225;-83
2021/09/03 04:42:51;;;;;;;9.25;7.38;;;10.00;99.00;;;;;;5087433;28;20201;-83
2021/09/03 04:45:18;;;;;;;9.10;7.53;;;9.90;99.10;;;;;;5085888;28;20263;-83
2021/09/03 04:47:45;;;;;;;9.40;6.95;;;9.90;99.20;;;;;;5081281;28;20240;-83
2021/09/03 04:50:14;;;;;;;7.03;6.32;;;9.90;99.40;;;;;;5084540;28;20245;-83
2021/09/03 04:52:43;;;;;;;9.07;7.05;;;9.90;99.50;;;;;;5087356;28;20241;-83
2021/09/03 04:55:11;;;;;;;12.30;7.38;;;9.90;99.50;;;;;;5082580;28;20249;-83
2021/09/03 04:57:42;;;;;;;8.90;6.65;;;9.90;99.50;;;;;;5089223;28;20197;-83
2021/09/03 05:00:12;;;;;;;9.20;6.85;;;9.90;99.50;;;;;;5083615;28;20642;-84
2021/09/03 05:02:39;;;;;;;7.97;7.18;;;10.00;99.00;;;;;;5086519;28;20197;-83
2021/09/03 05:05:07;;;;;;;7.85;6.90;;;10.10;98.90;;;;;;5081838;28;20328;-83
2021/09/03 05:07:35;;;;;;;8.82;7.18;;;10.30;98.80;;;;;;5088075;28;20204;-83
2021/09/03 05:10:03;;;;;;;10.02;7.15;;;10.20;98.40;;;;;;5084080;28;20316;-84
2021/09/03 05:12:30;;;;;;;8.15;6.85;;;10.10;98.80;;;;;;5086294;28;20225;-83
2021/09/03 05:14:58;;;;;;;9.52;7.20;;;10.20;98.80;;;;;;5089337;28;20227;-83
2021/09/03 05:17:25;;;;;;;10.75;7.18;;;10.20;98.90;;;;;;5090124;28;20215;-84
2021/09/03 05:19:52;;;;;;;9.82;8.30;;;10.10;99.00;;;;;;5083172;28;20225;-83
2021/09/03 05:22:19;;;;;;;9.05;7.40;;;10.20;99.40;;;;;;5080712;28;20205;-83
2021/09/03 05:24:47;;;;;;;8.00;6.78;;;10.20;99.30;;;;;;5082420;28;20237;-84
2021/09/03 05:27:14;;;;;;;9.43;7.40;;;10.20;99.60;;;;;;5087330;28;20568;-83
2021/09/03 05:29:41;;;;;;;9.63;7.25;;;10.30;99.60;;;;;;5086514;28;20295;-83
2021/09/03 05:32:10;;;;;;;8.57;7.30;;;10.50;99.40;;;;;;5085934;28;20197;-83
2021/09/03 05:34:37;;;;;;;8.35;7.43;;;10.60;99.30;;;;;;5083342;28;20245;-83
2021/09/03 05:37:05;;;;;;;8.93;7.50;;;10.70;99.10;;;;;;5084392;28;20231;-83
2021/09/03 05:39:32;;;;;;;10.18;7.63;;;10.80;99.20;;;;;;5086590;28;20217;-84
2021/09/03 05:42:00;;;;;;;11.05;8.50;;;10.90;98.90;;;;;;5088820;28;20268;-83
2021/09/03 05:44:27;;;;;;;10.50;8.05;;;11.00;98.90;;;;;;5083542;28;20237;-84
2021/09/03 05:46:54;;;;;;;10.88;8.82;;;11.00;98.90;;;;;;5084487;28;20229;-83
2021/09/03 05:49:22;;;;;;;11.45;8.52;;;11.00;99.00;;;;;;5079920;28;20232;-83
2021/09/03 05:51:49;;;;;;;10.80;8.40;;;11.00;99.30;;;;;;5079554;28;20239;-84
2021/09/03 05:54:16;;;;;;;9.52;8.50;;;11.20;99.30;;;;;;5087429;28;20248;-84
2021/09/03 05:56:43;;;;;;;11.95;9.55;;;11.20;99.20;;;;;;5087954;28;20293;-85
2021/09/03 05:59:13;;;;;;;11.82;9.18;;;11.30;99.20;;;;;;5080839;28;20239;-85
2021/09/03 06:01:41;;;;;;;9.88;8.82;;;11.30;99.20;;;;;;5088342;28;20210;-86
2021/09/03 06:04:09;;;;;;;10.10;8.82;;;11.30;99.30;;;;;;5081965;28;20221;-84
2021/09/03 06:06:36;;;;;;;13.52;8.88;;;11.30;99.40;;;;;;5086948;28;20232;-86
2021/09/03 06:09:04;;;;;;;12.55;9.05;;;11.50;99.40;;;;;;5075385;28;20284;-87
2021/09/03 06:11:31;;;;;;;11.82;9.00;;;11.50;99.20;;;;;;5087239;28;20286;-86
2021/09/03 06:13:59;;;;;;;12.02;9.88;;;11.60;99.00;;;;;;5085385;28;20278;-85
2021/09/03 06:16:27;;;;;;;10.77;8.60;;;11.70;99.00;;;;;;5089075;28;20224;-84
2021/09/03 06:18:54;;;;;;;14.10;10.00;;;11.70;99.00;;;;;;5088683;28;20268;-84
2021/09/03 06:21:31;;;;;;;10.95;9.60;;;11.70;99.00;;;;;;5087188;28;20266;-84
2021/09/03 06:23:58;;;;;;;10.75;9.38;;;11.70;99.20;;;;;;5086567;28;20228;-84
2021/09/03 06:26:26;;;;;;;13.88;10.20;;;11.90;98.80;;;;;;5084413;28;20213;-86
2021/09/03 06:28:53;;;;;;;14.52;10.15;;;11.90;98.80;;;;;;5086527;28;20265;-84
2021/09/03 06:31:20;;;;;;;13.25;10.20;;;12.00;98.70;;;;;;5087012;28;20277;-84
2021/09/03 06:33:49;;;;;;;14.13;10.15;;;12.00;98.80;;;;;;5081134;28;20288;-89
2021/09/03 06:36:16;;;;;;;17.10;10.45;;;12.20;98.60;;;;;;5084813;28;20265;-86
2021/09/03 06:38:43;;;;;;;14.80;10.70;;;12.30;98.20;;;;;;5073921;28;20201;-85
2021/09/03 06:41:11;;;;;;;13.45;10.00;;;12.50;97.80;;;;;;5089028;28;20284;-85
2021/09/03 06:43:38;;;;;;;13.50;11.32;;;12.50;97.80;;;;;;5080982;28;20212;-86
2021/09/03 06:46:06;;;;;;;11.82;10.32;;;12.50;97.50;;;;;;5086975;28;20307;-85
2021/09/03 06:48:35;;;;;;;13.32;10.70;;;12.60;97.60;;;;;;5088329;28;20197;-87
2021/09/03 06:54:19;;;;;;;15.77;10.38;;;12.60;98.10;;;;;;5066596;28;20197;-85
2021/09/03 06:56:47;;;;;;;13.98;10.40;;;12.80;97.60;;;;;;5077603;28;20722;-86
2021/09/03 06:59:50;;;;;;;12.82;10.20;;;12.90;97.30;;;;;;5077440;28;20245;-85
2021/09/03 07:02:18;;;;;;;14.70;10.95;;;12.90;96.90;;;;;;5074973;28;20201;-86
2021/09/03 07:04:47;;;;;;;13.48;10.80;;;13.00;96.70;;;;;;5086194;28;20233;-86
2021/09/03 07:07:16;;;;;;;14.73;10.75;;;13.00;97.00;;;;;;5081537;28;20212;-87
2021/09/03 07:09:43;;;;;;;14.85;10.80;;;13.10;97.20;;;;;;5081555;28;20243;-86
2021/09/03 07:12:11;;;;;;;14.88;10.55;;;13.20;97.20;;;;;;5084274;28;20264;-85
2021/09/03 07:14:38;;;;;;;14.55;10.30;;;13.40;97.00;;;;;;5077691;28;20638;-86
2021/09/03 07:17:07;;;;;;;13.27;10.25;;;13.50;96.60;;;;;;5082600;28;20266;-85
2021/09/03 07:19:36;;;;;;;13.38;10.02;;;13.60;96.60;;;;;;5063048;28;20233;-84
2021/09/03 07:22:04;;;;;;;13.80;10.68;;;13.70;96.90;;;;;;5079718;28;20264;-86
2021/09/03 07:24:33;;;;;;;14.48;10.13;;;13.80;96.70;;;;;;5082328;28;20252;-85
2021/09/03 07:27:00;;;;;;;16.13;10.48;;;13.90;96.60;;;;;;5083870;28;20661;-86
2021/09/03 07:29:27;;;;;;;11.48;9.55;;;14.00;96.70;;;;;;5080231;28;20584;-85
2021/09/03 07:31:55;;;;;;;12.35;10.00;;;14.10;96.70;;;;;;5074823;28;20200;-86
2021/09/03 07:34:21;;;;;;;11.45;9.57;;;14.50;95.50;;;;;;5070779;28;20627;-87
2021/09/03 07:36:49;;;;;;;14.70;10.07;;;14.60;95.20;;;;;;5066185;28;20210;-86
2021/09/03 07:39:19;;;;;;;12.88;9.18;;;14.70;94.60;;;;;;5072127;28;20233;-88
2021/09/03 07:41:48;;;;;;;9.90;8.80;;;14.70;95.30;;;;;;5072012;28;20209;-85
2021/09/03 07:44:15;;;;;;;9.85;8.82;;;14.80;94.70;;;;;;5071665;28;20772;-86
2021/09/03 07:46:43;;;;;;;9.48;8.25;;;14.90;94.20;;;;;;5068484;28;20227;-87
2021/09/03 07:49:12;;;;;;;11.23;8.77;;;14.80;94.40;;;;;;5071012;28;20229;-86
2021/09/03 07:51:39;;;;;;;10.13;8.18;;;14.90;94.30;;;;;;5069405;28;20204;-86
2021/09/03 07:54:06;;;;;;;10.20;8.50;;;15.00;94.10;;;;;;5071407;28;20231;-86
2021/09/03 07:56:33;;;;;;;11.13;8.25;;;15.10;94.00;;;;;;5066324;28;20201;-87
2021/09/03 07:59:03;;;;;;;9.15;7.70;;;15.20;94.00;;;;;;5070312;28;20199;-87
2021/09/03 08:01:30;;;;;;;8.95;7.75;;;15.20;93.80;;;;;;5064573;28;20196;-88
2021/09/03 08:03:56;;;;;;;8.98;7.82;;;15.30;93.30;;;;;;5071599;28;20290;-86
2021/09/03 08:06:23;;;;;;;10.82;8.38;;;15.40;93.90;;;;;;5068476;28;20271;-86
2021/09/03 08:08:50;;;;;;;10.25;8.60;;;15.40;93.60;;;;;;5067693;28;20208;-87
2021/09/03 08:11:18;;;;;;;12.20;8.23;;;15.60;93.90;;;;;;5068422;28;20219;-85
2021/09/03 08:13:45;;;;;;;9.57;7.78;;;15.70;93.50;;;;;;5059885;28;20198;-90
2021/09/03 08:16:13;;;;;;;9.52;7.90;;;15.70;92.60;;;;;;5068823;28;20207;-85
2021/09/03 08:18:40;;;;;;;10.73;9.20;;;15.70;92.70;;;;;;5065905;28;20225;-86
2021/09/03 08:21:07;;;;;;;10.77;8.27;;;15.90;92.10;;;;;;5071369;28;20256;-86
2021/09/03 08:23:35;;;;;;;10.52;7.82;;;15.90;91.70;;;;;;5069806;28;20739;-85
2021/09/03 08:26:06;;;;;;;9.63;8.50;;;16.00;91.70;;;;;;5077048;28;20225;-86
2021/09/03 08:28:33;;;;;;;10.13;8.73;;;16.10;91.70;;;;;;5071431;28;20199;-87
2021/09/03 08:31:01;;;;;;;79.78;67.68;;;16.20;92.00;;;;;;5077108;28;20337;-88
2021/09/03 08:33:29;;;;;;;11.00;8.10;;;16.40;91.00;;;;;;5073801;28;20217;-85
2021/09/03 08:35:56;;;;;;;9.25;8.25;;;16.50;91.20;;;;;;5080922;28;20225;-85
2021/09/03 08:38:23;;;;;;;9.70;7.38;;;16.60;90.30;;;;;;5082451;28;20197;-86
2021/09/03 08:40:50;;;;;;;8.05;7.25;;;16.70;90.20;;;;;;5080101;28;20236;-85
2021/09/03 08:43:19;;;;;;;13.07;8.20;;;16.70;90.20;;;;;;5077480;28;20204;-87
2021/09/03 08:45:47;;;;;;;11.02;8.63;;;16.80;88.80;;;;;;5075196;28;20888;-86
2021/09/03 08:48:17;;;;;;;10.32;8.30;;;16.90;89.60;;;;;;5076120;28;20276;-86
2021/09/03 08:50:48;;;;;;;24.35;19.85;;;16.90;90.10;;;;;;5076854;28;20313;-87
2021/09/03 08:53:18;;;;;;;9.32;8.35;;;17.10;90.40;;;;;;5072157;28;20228;-85
2021/09/03 08:55:46;;;;;;;9.10;7.75;;;17.20;89.30;;;;;;5077353;28;20232;-87
2021/09/03 08:58:13;;;;;;;9.57;8.25;;;17.30;88.50;;;;;;5072542;28;20660;-88
2021/09/03 09:00:41;;;;;;;8.52;7.55;;;17.40;86.20;;;;;;5070604;28;20707;-86
2021/09/03 09:03:13;;;;;;;13.32;8.00;;;17.40;84.60;;;;;;5075091;28;20212;-85
2021/09/03 09:05:49;;;;;;;9.52;7.45;;;17.80;83.90;;;;;;5079575;28;20282;-86
2021/09/03 09:08:19;;;;;;;8.35;7.30;;;18.50;80.70;;;;;;5078979;28;20545;-83
2021/09/03 09:10:47;;;;;;;8.05;7.25;;;19.50;74.60;;;;;;5077853;28;20256;-82
2021/09/03 09:13:16;;;;;;;10.60;7.80;;;21.80;57.60;;;;;;5076367;28;20279;-82
2021/09/03 09:15:44;;;;;;;9.73;7.18;;;24.00;42.10;;;;;;5072965;28;20289;-84
2021/09/03 09:18:11;;;;;;;8.82;7.93;;;25.30;36.40;;;;;;5076202;28;20201;-82
2021/09/03 09:20:38;;;;;;;9.48;8.07;;;26.10;30.40;;;;;;5075098;28;20227;-82
2021/09/03 09:23:07;;;;;;;9.20;8.30;;;27.70;28.00;;;;;;5075955;28;20231;-85
2021/09/03 09:25:37;;;;;;;11.35;7.80;;;29.10;23.90;;;;;;5076012;28;20241;-85
2021/09/03 09:28:18;;;;;;;9.23;8.43;;;29.40;23.40;;;;;;5072385;28;20196;-86
2021/09/03 09:30:46;;;;;;;7.65;7.05;;;29.90;21.80;;;;;;5070293;28;20226;-86
2021/09/03 09:33:16;;;;;;;8.80;7.90;;;30.80;19.50;;;;;;5074682;28;20220;-86
2021/09/03 09:35:45;;;;;;;9.98;7.80;;;30.10;20.00;;;;;;5062982;28;20225;-86
2021/09/03 09:38:14;;;;;;;10.10;8.35;;;30.20;19.90;;;;;;5070906;28;20189;-86
2021/09/03 09:40:50;;;;;;;9.15;8.32;;;30.90;19.20;;;;;;5072341;28;20326;-86
2021/09/03 09:43:25;;;;;;;9.25;8.35;;;30.90;18.00;;;;;;5067975;28;20185;-86
2021/09/03 09:46:29;;;;;;;9.85;8.95;;;30.40;19.20;;;;;;5064036;28;20228;-86
2021/09/03 09:49:05;;;;;;;8.63;7.82;;;30.20;18.10;;;;;;5072281;28;20199;-86
2021/09/03 09:51:35;;;;;;;8.65;7.95;;;30.20;19.00;;;;;;5075262;28;20185;-86
2021/09/03 09:54:07;;;;;;;8.45;7.72;;;31.20;18.10;;;;;;5069659;28;20296;-85
2021/09/03 09:56:36;;;;;;;7.88;7.28;;;31.80;17.50;;;;;;5064464;28;20285;-85
2021/09/03 09:59:06;;;;;;;7.97;7.28;;;32.50;17.40;;;;;;5072013;28;20193;-85
2021/09/03 10:01:34;;;;;;;8.57;7.80;;;32.10;17.60;;;;;;5074914;28;20199;-86
2021/09/03 10:04:05;;;;;;;8.73;7.93;;;32.70;16.40;;;;;;5064673;28;20597;-86
2021/09/03 10:06:34;;;;;;;8.73;7.85;;;32.50;17.80;;;;;;5071650;28;20233;-85
2021/09/03 10:09:04;;;;;;;8.57;7.88;;;31.60;17.40;;;;;;5073337;28;20207;-85
2021/09/03 10:11:32;;;;;;;8.27;7.55;;;31.80;17.50;;;;;;5075882;28;20232;-85
2021/09/03 10:13:59;;;;;;;8.77;7.70;;;30.90;18.30;;;;;;5073869;28;20292;-86
2021/09/03 10:16:25;;;;;;;9.15;7.80;;;31.60;17.50;;;;;;5071437;28;20193;-85
2021/09/03 10:18:57;;;;;;;8.02;7.32;;;31.50;18.20;;;;;;5073388;28;20269;-85
2021/09/03 10:21:31;;;;;;;8.13;7.35;;;31.20;17.20;;;;;;5069719;28;20193;-86
2021/09/03 10:24:07;;;;;;;7.13;6.57;;;29.60;18.30;;;;;;5074348;28;20250;-86
2021/09/03 10:26:37;;;;;;;8.32;7.30;;;29.40;19.70;;;;;;5071421;28;20596;-85
2021/09/03 10:29:32;;;;;;;8.07;7.28;;;29.20;20.70;;;;;;5068237;28;20415;-85
2021/09/03 10:32:24;;;;;;;7.70;7.00;;;29.20;20.40;;;;;;5038841;28;20203;-86
2021/09/03 10:35:00;;;;;;;21.30;11.90;;;29.70;20.30;;;;;;5075470;28;20238;-82
2021/09/03 10:37:37;;;;;;;12.02;8.60;;;29.30;20.90;;;;;;5074431;28;20228;-83
2021/09/03 10:40:20;;;;;;;18.52;10.90;;;29.70;22.80;;;;;;5071657;28;20228;-86
2021/09/03 10:43:02;;;;;;;9.57;7.63;;;30.00;20.80;;;;;;5072657;28;20589;-84
2021/09/03 10:45:35;;;;;;;7.35;6.63;;;30.50;20.80;;;;;;5070863;28;20225;-82
2021/09/03 10:48:18;;;;;;;13.60;12.35;;;30.60;18.10;;;;;;5074882;28;20200;-82
2021/09/03 10:50:51;;;;;;;7.15;6.45;;;30.80;20.50;;;;;;5072811;28;20239;-83
2021/09/03 10:53:32;;;;;;;10.07;7.82;;;30.50;18.10;;;;;;5075747;28;20230;-83
2021/09/03 10:56:07;;;;;;;8.43;7.63;;;30.00;21.70;;;;;;5069557;28;20236;-83
2021/09/03 10:58:50;;;;;;;11.05;9.95;;;30.00;19.30;;;;;;5071704;28;20660;-83
2021/09/03 11:01:39;;;;;;;15.27;13.85;;;29.50;19.90;;;;;;5064971;28;20210;-84
2021/09/03 11:04:13;;;;;;;6.90;6.30;;;27.50;24.30;;;;;;5068763;28;20239;-82
2021/09/03 11:06:42;;;;;;;6.55;6.05;;;27.60;25.10;;;;;;5073721;28;20208;-83
2021/09/03 11:09:22;;;;;;;7.60;6.45;;;27.40;25.10;;;;;;5066106;28;20239;-83
2021/09/03 11:11:52;;;;;;;9.40;6.55;;;26.90;25.60;;;;;;5073073;28;20188;-82
2021/09/03 11:14:21;;;;;;;10.13;6.75;;;26.20;30.80;;;;;;5069481;28;20230;-82
2021/09/03 11:16:50;;;;;;;7.88;6.28;;;25.70;30.50;;;;;;5073467;28;20201;-83
2021/09/03 11:19:27;;;;;;;9.43;7.15;;;25.00;36.20;;;;;;5080334;28;20228;-81
2021/09/03 11:21:57;;;;;;;7.90;7.10;;;24.70;32.90;;;;;;5072985;28;20605;-80
2021/09/03 11:24:27;;;;;;;9.63;7.20;;;24.50;35.80;;;;;;5073413;28;20280;-79
2021/09/03 11:26:56;;;;;;;10.38;7.70;;;24.30;35.70;;;;;;5075565;28;20221;-82
2021/09/03 11:29:26;;;;;;;7.70;6.90;;;24.10;35.50;;;;;;5077667;28;20228;-81
2021/09/03 11:31:59;;;;;;;8.45;7.35;;;24.10;37.80;;;;;;5080597;28;20269;-82
2021/09/03 11:34:51;;;;;;;9.77;7.20;;;23.90;36.70;;;;;;5076990;28;20253;-84
2021/09/03 11:37:23;;;;;;;10.15;7.43;;;23.80;35.20;;;;;;5072331;28;20204;-84
2021/09/03 11:39:51;;;;;;;7.38;6.55;;;23.60;37.50;;;;;;5067008;28;20308;-83
2021/09/03 11:42:24;;;;;;;7.47;6.57;;;23.60;39.60;;;;;;5073133;28;20211;-83
2021/09/03 11:44:52;;;;;;;9.18;7.03;;;23.40;35.30;;;;;;5071474;28;20221;-83
2021/09/03 11:47:32;;;;;;;7.57;6.75;;;23.00;45.00;;;;;;5073176;28;20248;-84
2021/09/03 11:50:00;;;;;;;10.85;7.18;;;23.30;38.10;;;;;;5075067;28;20267;-83
2021/09/03 11:52:30;;;;;;;9.80;6.88;;;23.30;42.60;;;;;;5080595;28;20285;-83
2021/09/03 11:54:57;;;;;;;10.10;6.78;;;23.40;37.70;;;;;;5079309;28;20217;-83
2021/09/03 11:57:26;;;;;;;8.45;6.43;;;23.30;40.00;;;;;;5071006;28;20194;-83
2021/09/03 11:59:55;;;;;;;9.38;6.63;;;23.40;37.70;;;;;;5072838;28;20235;-82
2021/09/03 12:02:23;;;;;;;8.55;6.60;;;23.30;37.80;;;;;;5077168;28;20193;-83
2021/09/03 12:04:51;;;;;;;7.93;6.80;;;23.30;37.90;;;;;;5077421;28;20221;-83
2021/09/03 12:07:19;;;;;;;7.57;6.75;;;23.30;38.30;;;;;;5074488;28;20286;-83
2021/09/03 12:09:46;;;;;;;7.55;6.65;;;23.20;39.00;;;;;;5075084;28;20228;-82
2021/09/03 12:12:13;;;;;;;8.00;6.80;;;23.20;37.50;;;;;;5078492;28;20228;-82
2021/09/03 12:14:51;;;;;;;7.63;6.88;;;23.20;36.60;;;;;;5076223;28;20260;-82
2021/09/03 12:17:20;;;;;;;9.23;6.95;;;23.20;37.40;;;;;;5078743;28;20193;-82
2021/09/03 12:19:47;;;;;;;7.75;6.95;;;23.20;39.30;;;;;;5079244;28;20320;-82
2021/09/03 12:22:18;;;;;;;8.27;6.30;;;23.30;37.70;;;;;;5079574;28;20268;-82
2021/09/03 12:24:49;;;;;;;13.75;11.98;;;23.40;39.60;;;;;;5079780;28;20263;-82
2021/09/03 12:27:16;;;;;;;8.85;6.53;;;23.50;39.90;;;;;;5077940;28;20303;-82
2021/09/03 12:29:44;;;;;;;7.65;6.85;;;23.40;39.20;;;;;;5071261;28;20230;-85
2021/09/03 12:32:14;;;;;;;9.85;6.55;;;23.50;39.10;;;;;;5078176;28;20284;-82
2021/09/03 12:34:42;;;;;;;8.70;6.75;;;23.50;39.70;;;;;;5074034;28;20228;-83
2021/09/03 12:37:11;;;;;;;7.70;6.90;;;23.40;40.50;;;;;;5075279;28;20284;-82
2021/09/03 12:39:40;;;;;;;6.97;6.35;;;23.30;39.30;;;;;;5067035;28;20241;-83
2021/09/03 12:42:15;;;;;;;7.88;6.57;;;23.40;41.20;;;;;;5071631;28;20589;-83
2021/09/03 12:44:42;;;;;;;6.78;5.82;;;23.30;41.90;;;;;;5074722;28;20307;-83
2021/09/03 12:47:19;;;;;;;10.40;6.63;;;23.30;39.70;;;;;;5071841;28;20308;-83
2021/09/03 12:49:47;;;;;;;8.40;6.70;;;23.30;39.60;;;;;;5071779;28;20233;-83
2021/09/03 12:52:16;;;;;;;6.53;5.93;;;22.90;39.50;;;;;;5071360;28;20711;-83